Time;durP1;ratioP1;P1;durP2;ratioP2;P2;SDS_P1;SDS_P2;PMS_P1;PMS_P2;Temp;Humidity;BMP_temperature;BMP_pressure;BME280_temperature;BME280_humidity;BME280_pressure;Samples;Min_cycle;Max_cycle;Signal;HPM_P1;HPM_P2
2022/09/28 04:39:56;;;;;;;10.43;3.92;;;;;;;;;;5054030;24;20065;-66
2022/09/28 04:42:22;;;;;;;13.52;3.80;;;;;;;;;;4840273;29;20501;-66
2022/09/28 04:44:48;;;;;;;7.68;3.72;;;;;;;;;;4839593;29;20030;-64
2022/09/28 04:47:14;;;;;;;9.52;4.40;;;;;;;;;;4833838;29;20077;-64
2022/09/28 04:49:40;;;;;;;10.98;4.25;;;;;;;;;;4832043;29;20033;-63
2022/09/28 04:52:06;;;;;;;10.45;4.38;;;;;;;;;;4831878;29;20034;-64
2022/09/28 04:54:32;;;;;;;9.30;3.97;;;;;;;;;;4832986;29;20050;-65
2022/09/28 04:56:59;;;;;;;5.78;3.88;;;;;;;;;;4832294;29;20037;-63
2022/09/28 04:59:25;;;;;;;11.10;4.22;;;;;;;;;;4833628;29;20033;-63
2022/09/28 05:01:52;;;;;;;7.25;3.80;;;;;;;;;;4831194;29;20033;-63
2022/09/28 05:04:18;;;;;;;8.13;4.47;;;;;;;;;;4831534;29;20030;-66
2022/09/28 05:06:44;;;;;;;7.60;4.13;;;;;;;;;;4832405;29;20026;-64
2022/09/28 05:09:10;;;;;;;9.85;4.50;;;;;;;;;;4833437;29;20408;-64
2022/09/28 05:11:36;;;;;;;9.70;3.85;;;;;;;;;;4831389;29;20038;-64
2022/09/28 05:14:02;;;;;;;9.00;5.00;;;;;;;;;;4832793;29;20038;-64
2022/09/28 05:16:29;;;;;;;10.27;4.40;;;;;;;;;;4835429;29;20378;-64
2022/09/28 05:18:56;;;;;;;7.05;4.10;;;;;;;;;;4842959;29;20030;-63
2022/09/28 05:21:24;;;;;;;6.50;4.60;;;;;;;;;;4834324;29;20022;-63
2022/09/28 05:23:50;;;;;;;13.43;4.53;;;;;;;;;;4830323;29;20494;-65
2022/09/28 05:26:16;;;;;;;11.73;5.10;;;;;;;;;;4833543;29;20037;-64
2022/09/28 05:28:43;;;;;;;10.00;4.75;;;;;;;;;;4833230;29;20032;-64
2022/09/28 05:31:09;;;;;;;7.63;4.55;;;;;;;;;;4832225;29;20030;-63
2022/09/28 05:33:36;;;;;;;10.27;4.53;;;;;;;;;;4824539;29;20593;-63
2022/09/28 05:36:02;;;;;;;7.57;4.05;;;;;;;;;;4824570;29;20026;-63
2022/09/28 05:38:29;;;;;;;15.80;4.60;;;;;;;;;;4829765;29;20124;-63
2022/09/28 05:40:55;;;;;;;6.47;4.13;;;;;;;;;;4861420;29;20035;-63
2022/09/28 05:43:21;;;;;;;6.20;3.90;;;;;;;;;;4861298;29;20029;-64
2022/09/28 05:45:47;;;;;;;9.77;4.75;;;;;;;;;;4860924;29;20505;-65
2022/09/28 05:48:13;;;;;;;12.45;5.55;;;;;;;;;;4860755;29;20030;-63
2022/09/28 05:50:39;;;;;;;12.35;5.40;;;;;;;;;;4861339;29;20037;-66
2022/09/28 05:53:07;;;;;;;9.82;4.68;;;;;;;;;;4861108;29;20044;-65
2022/09/28 05:55:34;;;;;;;7.05;4.57;;;;;;;;;;4861163;29;20033;-67
2022/09/28 05:58:01;;;;;;;6.40;4.30;;;;;;;;;;4860318;29;20037;-67
2022/09/28 06:00:28;;;;;;;9.20;5.47;;;;;;;;;;4860734;29;20034;-65
2022/09/28 06:03:00;;;;;;;9.35;6.07;;;;;;;;;;4861067;29;20034;-67
2022/09/28 06:05:27;;;;;;;9.07;4.75;;;;;;;;;;4861023;29;20037;-67
2022/09/28 06:07:57;;;;;;;8.63;4.28;;;;;;;;;;4859999;29;20041;-68
2022/09/28 06:10:23;;;;;;;10.25;4.88;;;;;;;;;;4860956;29;20057;-67
2022/09/28 06:12:56;;;;;;;8.90;4.15;;;;;;;;;;4860617;29;20037;-66
2022/09/28 06:15:23;;;;;;;9.85;4.40;;;;;;;;;;4860655;29;20037;-68
2022/09/28 06:17:55;;;;;;;11.00;5.40;;;;;;;;;;4843152;29;20033;-69
2022/09/28 06:20:21;;;;;;;11.32;5.00;;;;;;;;;;4860213;29;20026;-67
2022/09/28 06:22:50;;;;;;;11.10;4.80;;;;;;;;;;4860286;29;20032;-66
2022/09/28 06:25:16;;;;;;;10.10;5.10;;;;;;;;;;4860403;29;20501;-66
2022/09/28 06:27:42;;;;;;;13.95;5.57;;;;;;;;;;4860423;29;20033;-65
2022/09/28 06:30:08;;;;;;;8.32;5.20;;;;;;;;;;4860310;29;20029;-66
2022/09/28 06:32:34;;;;;;;9.60;5.60;;;;;;;;;;4860369;29;20021;-66
2022/09/28 06:35:00;;;;;;;8.00;5.25;;;;;;;;;;4859873;29;20120;-65
2022/09/28 06:37:27;;;;;;;14.00;5.13;;;;;;;;;;4860018;29;20124;-66
2022/09/28 06:39:53;;;;;;;6.35;4.10;;;;;;;;;;4859940;29;20101;-66
2022/09/28 06:42:19;;;;;;;7.03;3.00;;;;;;;;;;4860266;29;20025;-66
2022/09/28 06:44:45;;;;;;;5.85;2.80;;;;;;;;;;4859931;29;20025;-66
2022/09/28 06:47:12;;;;;;;7.32;2.50;;;;;;;;;;4859770;29;20236;-65
2022/09/28 06:49:38;;;;;;;6.68;2.70;;;;;;;;;;4843481;29;20069;-66
2022/09/28 06:52:04;;;;;;;7.53;3.40;;;;;;;;;;4842723;29;20132;-65
2022/09/28 06:54:30;;;;;;;10.05;4.53;;;;;;;;;;4859531;29;20501;-65
2022/09/28 06:56:56;;;;;;;12.05;5.40;;;;;;;;;;4859564;29;20030;-65
2022/09/28 06:59:23;;;;;;;8.43;4.45;;;;;;;;;;4859449;29;20498;-65
2022/09/28 07:01:49;;;;;;;11.07;4.88;;;;;;;;;;4859554;29;20121;-65
2022/09/28 07:04:15;;;;;;;9.20;4.15;;;;;;;;;;4859827;29;20037;-66
2022/09/28 07:06:46;;;;;;;6.93;3.22;;;;;;;;;;4842178;29;20041;-66
2022/09/28 07:09:12;;;;;;;6.25;2.85;;;;;;;;;;4859154;29;20037;-65
2022/09/28 07:11:38;;;;;;;7.85;3.90;;;;;;;;;;4859155;29;20037;-65
2022/09/28 07:14:05;;;;;;;5.85;3.28;;;;;;;;;;4842762;29;20050;-66
2022/09/28 07:16:31;;;;;;;10.05;4.15;;;;;;;;;;4859465;29;20029;-65
2022/09/28 07:18:57;;;;;;;6.05;3.17;;;;;;;;;;4859375;29;20029;-65
2022/09/28 07:21:23;;;;;;;6.60;3.83;;;;;;;;;;4859237;29;20097;-65
2022/09/28 07:23:50;;;;;;;7.88;4.10;;;;;;;;;;4858975;29;20025;-65
2022/09/28 07:26:18;;;;;;;8.38;4.30;;;;;;;;;;4859442;29;20040;-65
2022/09/28 07:28:44;;;;;;;9.35;4.70;;;;;;;;;;4859152;29;20018;-65
2022/09/28 07:31:10;;;;;;;8.93;4.32;;;;;;;;;;4859252;29;20037;-66
2022/09/28 07:33:36;;;;;;;8.45;4.75;;;;;;;;;;4859106;29;20093;-65
2022/09/28 07:36:05;;;;;;;10.93;4.78;;;;;;;;;;4859118;29;20481;-63
2022/09/28 07:38:32;;;;;;;7.18;4.40;;;;;;;;;;4858861;29;20101;-65
2022/09/28 07:41:10;;;;;;;9.27;5.07;;;;;;;;;;4859159;29;20032;-65
2022/09/28 07:43:38;;;;;;;7.15;4.68;;;;;;;;;;4860051;29;20033;-66
2022/09/28 07:46:08;;;;;;;7.88;4.78;;;;;;;;;;4877404;29;20495;-65
2022/09/28 07:48:35;;;;;;;9.20;5.22;;;;;;;;;;4877472;29;20029;-66
2022/09/28 07:51:01;;;;;;;9.07;5.00;;;;;;;;;;4877880;29;20037;-66
2022/09/28 07:53:28;;;;;;;7.05;3.78;;;;;;;;;;4859629;29;20033;-65
2022/09/28 07:55:55;;;;;;;9.02;4.82;;;;;;;;;;4877607;29;20803;-65
2022/09/28 07:58:21;;;;;;;6.88;3.55;;;;;;;;;;4877433;29;20033;-65
2022/09/28 08:00:48;;;;;;;4.30;2.83;;;;;;;;;;4877247;29;20473;-66
2022/09/28 08:03:18;;;;;;;7.15;2.80;;;;;;;;;;4877201;29;20029;-66
2022/09/28 08:05:45;;;;;;;5.45;2.78;;;;;;;;;;4860220;29;20460;-66
2022/09/28 08:08:12;;;;;;;5.32;2.92;;;;;;;;;;4876238;29;20039;-66
2022/09/28 08:10:38;;;;;;;9.23;3.00;;;;;;;;;;4876750;29;20466;-66
2022/09/28 08:13:04;;;;;;;3.35;2.40;;;;;;;;;;4876096;29;20113;-66
2022/09/28 08:15:35;;;;;;;4.70;2.42;;;;;;;;;;4876743;29;20033;-66
2022/09/28 08:18:01;;;;;;;6.32;2.97;;;;;;;;;;4877084;29;20389;-66
2022/09/28 08:23:12;;;;;;;10.05;3.33;;;;;;;;;;4877477;29;20689;-66
2022/09/28 08:25:38;;;;;;;6.65;3.75;;;;;;;;;;4876965;29;20029;-66
2022/09/28 08:28:07;;;;;;;6.95;3.72;;;;;;;;;;4876338;29;20021;-65
2022/09/28 08:30:34;;;;;;;7.15;3.50;;;;;;;;;;4876783;29;20055;-65
2022/09/28 08:33:00;;;;;;;9.27;4.10;;;;;;;;;;4877101;29;20049;-66
2022/09/28 08:35:26;;;;;;;7.32;4.20;;;;;;;;;;4876659;29;20512;-66
2022/09/28 08:37:53;;;;;;;7.35;4.45;;;;;;;;;;4876633;29;20041;-65
2022/09/28 08:40:24;;;;;;;8.77;4.50;;;;;;;;;;4858396;29;20045;-65
2022/09/28 08:42:53;;;;;;;21.35;12.18;;;;;;;;;;4876898;29;20025;-65
2022/09/28 08:45:21;;;;;;;19.13;11.40;;;;;;;;;;4876989;29;20112;-66
2022/09/28 08:50:46;;;;;;;11.77;5.63;;;;;;;;;;4876868;29;20047;-66
2022/09/28 08:53:21;;;;;;;11.80;4.88;;;;;;;;;;4876272;29;20033;-67
2022/09/28 08:55:48;;;;;;;7.18;4.20;;;;;;;;;;4877122;29;20113;-65
2022/09/28 08:58:16;;;;;;;5.63;3.60;;;;;;;;;;4860300;29;20049;-66
2022/09/28 09:00:46;;;;;;;6.20;3.63;;;;;;;;;;4858065;29;20063;-67
2022/09/28 09:03:14;;;;;;;6.22;3.90;;;;;;;;;;4841703;29;20060;-66
2022/09/28 09:05:51;;;;;;;13.30;7.65;;;;;;;;;;4857677;29;20034;-67
2022/09/28 09:08:20;;;;;;;9.55;5.25;;;;;;;;;;4857105;29;20049;-67
2022/09/28 09:10:49;;;;;;;10.07;5.15;;;;;;;;;;4857767;29;20025;-66
2022/09/28 09:13:34;;;;;;;9.27;3.78;;;;;;;;;;4857973;29;20041;-66
2022/09/28 09:16:01;;;;;;;9.57;4.20;;;;;;;;;;4858198;29;20425;-65
2022/09/28 09:18:48;;;;;;;8.55;4.47;;;;;;;;;;4857274;29;20029;-66
2022/09/28 09:21:32;;;;;;;7.38;4.60;;;;;;;;;;4857642;29;20439;-67
2022/09/28 09:24:06;;;;;;;13.93;5.30;;;;;;;;;;4857624;29;20064;-67
2022/09/28 09:26:39;;;;;;;9.50;4.75;;;;;;;;;;4857560;29;20389;-67
2022/09/28 09:29:20;;;;;;;9.38;5.07;;;;;;;;;;4857532;29;20037;-67
2022/09/28 09:31:56;;;;;;;7.97;4.35;;;;;;;;;;4872504;29;20030;-66
2022/09/28 09:34:41;;;;;;;9.13;3.97;;;;;;;;;;4879236;29;20120;-67
2022/09/28 09:37:26;;;;;;;11.13;5.50;;;;;;;;;;4878964;29;20026;-67
2022/09/28 09:39:52;;;;;;;9.55;5.13;;;;;;;;;;4879090;29;20497;-67
2022/09/28 09:42:36;;;;;;;7.10;3.58;;;;;;;;;;4879649;29;20033;-66
2022/09/28 09:45:21;;;;;;;5.35;2.97;;;;;;;;;;4879477;29;20033;-67
2022/09/28 09:47:54;;;;;;;6.45;3.78;;;;;;;;;;4862792;29;20037;-67
2022/09/28 09:50:39;;;;;;;8.57;3.38;;;;;;;;;;4879102;29;20116;-67
2022/09/28 09:53:17;;;;;;;6.72;3.70;;;;;;;;;;4879388;29;20029;-67
2022/09/28 09:55:44;;;;;;;6.95;3.63;;;;;;;;;;4879510;29;20454;-67
2022/09/28 09:58:15;;;;;;;5.78;2.97;;;;;;;;;;4878843;29;20085;-67
2022/09/28 10:00:43;;;;;;;4.28;2.05;;;;;;;;;;4879336;29;20083;-66
2022/09/28 10:03:26;;;;;;;3.97;1.80;;;;;;;;;;4879205;29;20105;-66
2022/09/28 10:06:05;;;;;;;3.55;1.90;;;;;;;;;;4879172;29;20111;-66
2022/09/28 10:08:33;;;;;;;4.72;2.08;;;;;;;;;;4878836;29;20041;-67
2022/09/28 10:11:17;;;;;;;6.30;2.00;;;;;;;;;;4879326;29;20456;-67
2022/09/28 10:13:44;;;;;;;4.10;2.15;;;;;;;;;;4879061;29;20497;-67
2022/09/28 10:16:10;;;;;;;4.57;2.28;;;;;;;;;;4879269;29;20173;-67
2022/09/28 10:18:36;;;;;;;4.13;2.55;;;;;;;;;;4878166;29;20060;-66
2022/09/28 10:21:02;;;;;;;4.50;2.70;;;;;;;;;;4879141;29;20263;-66
2022/09/28 10:23:30;;;;;;;9.13;3.30;;;;;;;;;;4879129;29;20029;-66
2022/09/28 10:26:03;;;;;;;6.80;3.08;;;;;;;;;;4879021;29;20081;-66
2022/09/28 10:28:35;;;;;;;10.10;5.00;;;;;;;;;;4862814;29;20034;-67
2022/09/28 10:31:21;;;;;;;6.80;3.63;;;;;;;;;;4860143;29;20125;-67
2022/09/28 10:33:47;;;;;;;8.63;4.20;;;;;;;;;;4859723;29;20482;-67
2022/09/28 10:36:13;;;;;;;10.50;5.32;;;;;;;;;;4859754;29;20057;-67
2022/09/28 10:38:46;;;;;;;6.30;3.67;;;;;;;;;;4859648;29;20098;-67
2022/09/28 10:41:12;;;;;;;7.25;4.05;;;;;;;;;;4859973;29;20087;-67
2022/09/28 10:43:45;;;;;;;7.53;2.83;;;;;;;;;;4859657;29;20037;-67
2022/09/28 10:46:20;;;;;;;3.38;1.98;;;;;;;;;;4866468;29;20036;-67
2022/09/28 10:48:49;;;;;;;3.97;2.15;;;;;;;;;;4867072;29;20030;-67
2022/09/28 10:51:16;;;;;;;2.78;1.80;;;;;;;;;;4870894;29;20081;-67
2022/09/28 10:53:42;;;;;;;3.67;2.20;;;;;;;;;;4878402;29;20129;-67
2022/09/28 10:56:21;;;;;;;5.50;2.72;;;;;;;;;;4878535;29;20025;-67
2022/09/28 10:58:47;;;;;;;4.47;2.90;;;;;;;;;;4878214;29;20548;-68
2022/09/28 11:01:18;;;;;;;6.40;3.40;;;;;;;;;;4878226;29;20089;-67
2022/09/28 11:03:59;;;;;;;5.70;3.22;;;;;;;;;;4877700;29;20499;-67
2022/09/28 11:06:26;;;;;;;6.35;3.28;;;;;;;;;;4878418;29;20570;-67
2022/09/28 11:08:54;;;;;;;8.20;4.40;;;;;;;;;;4877776;29;20040;-66
2022/09/28 11:11:20;;;;;;;8.05;4.78;;;;;;;;;;4878184;29;20029;-67
2022/09/28 11:13:48;;;;;;;9.30;4.85;;;;;;;;;;4877897;29;20088;-67
2022/09/28 11:16:19;;;;;;;9.73;5.00;;;;;;;;;;4877962;29;20036;-67
2022/09/28 11:18:45;;;;;;;11.23;4.75;;;;;;;;;;4877819;29;20029;-67
2022/09/28 11:21:16;;;;;;;9.48;4.68;;;;;;;;;;4877480;29;20028;-67
2022/09/28 11:23:54;;;;;;;6.75;4.75;;;;;;;;;;4877684;29;20431;-66
2022/09/28 11:26:21;;;;;;;8.65;5.55;;;;;;;;;;4860925;29;20037;-66
2022/09/28 11:28:51;;;;;;;12.60;7.20;;;;;;;;;;4876927;29;20056;-65
2022/09/28 11:31:24;;;;;;;11.15;6.95;;;;;;;;;;4876370;29;20081;-66
2022/09/28 11:33:50;;;;;;;11.73;6.13;;;;;;;;;;4877700;29;20041;-65
2022/09/28 11:36:16;;;;;;;12.18;6.55;;;;;;;;;;4877868;29;20615;-66
2022/09/28 11:39:01;;;;;;;11.07;6.47;;;;;;;;;;4877124;29;20052;-65
2022/09/28 11:41:27;;;;;;;9.57;5.60;;;;;;;;;;4877587;29;20123;-67
2022/09/28 11:44:08;;;;;;;11.50;5.78;;;;;;;;;;4877315;29;20108;-66
2022/09/28 11:46:51;;;;;;;9.10;5.70;;;;;;;;;;4877291;29;20052;-66
2022/09/28 11:49:20;;;;;;;8.73;5.82;;;;;;;;;;4877190;29;20100;-69
2022/09/28 11:51:48;;;;;;;8.52;5.40;;;;;;;;;;4876988;29;20037;-67
2022/09/28 11:54:19;;;;;;;11.48;5.72;;;;;;;;;;4876872;29;20512;-65
2022/09/28 11:56:48;;;;;;;8.70;5.50;;;;;;;;;;4876353;29;20033;-70
2022/09/28 11:59:17;;;;;;;9.55;5.28;;;;;;;;;;4877229;29;20040;-65
2022/09/28 12:01:47;;;;;;;7.90;4.88;;;;;;;;;;4877425;29;20045;-67
2022/09/28 12:04:19;;;;;;;9.85;5.68;;;;;;;;;;4876895;29;20033;-67
2022/09/28 12:06:49;;;;;;;11.55;5.47;;;;;;;;;;4877032;29;20093;-68
2022/09/28 12:09:19;;;;;;;8.95;5.55;;;;;;;;;;4877146;29;20097;-66
2022/09/28 12:11:48;;;;;;;9.52;5.63;;;;;;;;;;4877088;29;20544;-65
2022/09/28 12:14:21;;;;;;;11.18;5.35;;;;;;;;;;4876688;29;20524;-67
2022/09/28 12:17:05;;;;;;;9.88;5.75;;;;;;;;;;4876171;29;20030;-66
2022/09/28 12:19:44;;;;;;;9.25;5.22;;;;;;;;;;4859410;29;20036;-68
2022/09/28 12:22:15;;;;;;;8.23;4.80;;;;;;;;;;4877070;29;20103;-68
2022/09/28 12:24:43;;;;;;;9.68;5.10;;;;;;;;;;4877003;29;20482;-68
2022/09/28 12:27:09;;;;;;;8.38;4.97;;;;;;;;;;4876656;29;20481;-67
2022/09/28 12:29:46;;;;;;;10.32;5.25;;;;;;;;;;4876430;29;20053;-67
2022/09/28 12:32:24;;;;;;;10.43;5.45;;;;;;;;;;4876821;29;20033;-66
2022/09/28 12:34:50;;;;;;;7.75;4.57;;;;;;;;;;4876989;29;20040;-68
2022/09/28 12:37:45;;;;;;;7.97;5.07;;;;;;;;;;4876922;29;20033;-67
2022/09/28 12:40:23;;;;;;;9.35;5.13;;;;;;;;;;4876010;29;20053;-66
2022/09/28 12:43:04;;;;;;;7.30;4.75;;;;;;;;;;4877200;29;20029;-67
2022/09/28 12:45:30;;;;;;;7.78;5.30;;;;;;;;;;4876934;29;20115;-67
2022/09/28 12:48:07;;;;;;;7.85;5.35;;;;;;;;;;4876849;29;20100;-65
2022/09/28 12:50:44;;;;;;;7.80;4.90;;;;;;;;;;4876645;29;20037;-66
2022/09/28 12:53:28;;;;;;;8.57;5.30;;;;;;;;;;4876536;29;20422;-65
2022/09/28 12:55:55;;;;;;;11.55;5.82;;;;;;;;;;4876585;29;20033;-66
2022/09/28 12:58:30;;;;;;;10.73;6.25;;;;;;;;;;4876105;29;20025;-66
2022/09/28 13:00:56;;;;;;;11.05;6.57;;;;;;;;;;4876292;29;20520;-67
2022/09/28 13:03:44;;;;;;;11.18;6.65;;;;;;;;;;4876580;29;20363;-66
2022/09/28 13:06:13;;;;;;;9.43;6.30;;;;;;;;;;4876304;29;20057;-66
2022/09/28 13:09:00;;;;;;;11.30;7.15;;;;;;;;;;4879878;29;20104;-66
2022/09/28 13:11:26;;;;;;;11.50;7.15;;;;;;;;;;4880223;29;20030;-66
2022/09/28 13:13:55;;;;;;;14.45;7.30;;;;;;;;;;4879962;29;20045;-66
2022/09/28 13:16:40;;;;;;;10.85;6.88;;;;;;;;;;4880585;29;20025;-66
2022/09/28 13:19:06;;;;;;;11.20;7.07;;;;;;;;;;4880197;29;20465;-66
2022/09/28 13:21:47;;;;;;;11.75;7.43;;;;;;;;;;4879772;29;20037;-66
2022/09/28 13:24:17;;;;;;;11.70;6.82;;;;;;;;;;4879909;29;20037;-66
2022/09/28 13:26:45;;;;;;;13.35;7.50;;;;;;;;;;4880378;29;20112;-66
2022/09/28 13:29:17;;;;;;;11.88;8.00;;;;;;;;;;4879765;29;20442;-67
2022/09/28 13:31:59;;;;;;;13.00;8.27;;;;;;;;;;4862280;29;20057;-67
2022/09/28 13:34:26;;;;;;;11.20;7.22;;;;;;;;;;4878113;29;20292;-68
2022/09/28 13:37:11;;;;;;;12.18;7.60;;;;;;;;;;4879760;29;20033;-68
2022/09/28 13:39:47;;;;;;;13.98;7.57;;;;;;;;;;4879342;29;20131;-68
2022/09/28 13:42:24;;;;;;;13.68;7.82;;;;;;;;;;4879830;29;20037;-68
2022/09/28 13:44:59;;;;;;;12.65;7.55;;;;;;;;;;4879774;29;20111;-68
2022/09/28 13:47:31;;;;;;;12.52;7.82;;;;;;;;;;4879895;29;20056;-68
2022/09/28 13:50:12;;;;;;;12.63;7.68;;;;;;;;;;4862553;29;20041;-68
2022/09/28 13:52:49;;;;;;;14.77;7.47;;;;;;;;;;4879706;29;20029;-70
2022/09/28 13:55:32;;;;;;;12.93;7.50;;;;;;;;;;4879587;29;20041;-68
2022/09/28 13:58:12;;;;;;;12.50;8.02;;;;;;;;;;4879518;29;20107;-67
2022/09/28 14:00:44;;;;;;;15.90;8.23;;;;;;;;;;4875726;29;20485;-67
2022/09/28 14:03:20;;;;;;;14.35;8.13;;;;;;;;;;4869480;29;20037;-69
2022/09/28 14:06:04;;;;;;;12.88;7.63;;;;;;;;;;4867102;29;20032;-68
2022/09/28 14:08:33;;;;;;;13.02;7.93;;;;;;;;;;4872131;29;20037;-67
2022/09/28 14:11:20;;;;;;;11.43;7.45;;;;;;;;;;4879048;29;20051;-68
2022/09/28 14:14:06;;;;;;;14.63;8.18;;;;;;;;;;4879253;29;20032;-67
2022/09/28 14:16:32;;;;;;;13.38;7.90;;;;;;;;;;4878719;29;20052;-67
2022/09/28 14:19:11;;;;;;;12.68;7.90;;;;;;;;;;4868768;29;20093;-68
2022/09/28 14:21:46;;;;;;;14.60;7.97;;;;;;;;;;4860690;29;20060;-68
2022/09/28 14:24:29;;;;;;;12.10;7.30;;;;;;;;;;4860447;29;20045;-66
2022/09/28 14:27:10;;;;;;;12.80;7.90;;;;;;;;;;4860422;29;20025;-66
2022/09/28 14:29:37;;;;;;;12.52;8.15;;;;;;;;;;4857129;29;20037;-67
2022/09/28 14:32:21;;;;;;;13.43;8.35;;;;;;;;;;4860089;29;20026;-68
2022/09/28 14:34:48;;;;;;;14.18;8.68;;;;;;;;;;4860386;29;20046;-69
2022/09/28 14:43:26;;;;;;;15.95;9.30;;;;;;;;;;4878290;29;20040;-67
2022/09/28 14:46:10;;;;;;;14.35;9.18;;;;;;;;;;4861862;29;20029;-68
2022/09/28 14:48:55;;;;;;;13.18;9.38;;;;;;;;;;4878710;29;20053;-66
2022/09/28 14:51:28;;;;;;;15.75;9.40;;;;;;;;;;4861695;29;20198;-67
2022/09/28 14:54:20;;;;;;;13.98;9.10;;;;;;;;;;4878424;29;20446;-67
2022/09/28 14:56:58;;;;;;;12.27;8.98;;;;;;;;;;4875191;29;20093;-66
2022/09/28 14:59:24;;;;;;;14.75;10.50;;;;;;;;;;4876655;29;20088;-67
2022/09/28 15:01:56;;;;;;;17.88;13.43;;;;;;;;;;4872950;29;20033;-67
2022/09/28 15:04:24;;;;;;;22.42;16.73;;;;;;;;;;4860328;29;20052;-67
2022/09/28 15:06:51;;;;;;;30.45;21.75;;;;;;;;;;4861493;29;20048;-67
2022/09/28 15:09:27;;;;;;;32.85;22.35;;;;;;;;;;4866436;29;20434;-66
2022/09/28 15:11:58;;;;;;;31.35;22.98;;;;;;;;;;4861521;29;20137;-65
2022/09/28 15:14:24;;;;;;;20.88;15.00;;;;;;;;;;4869407;29;20140;-64
2022/09/28 15:16:50;;;;;;;19.15;13.88;;;;;;;;;;4870582;29;20040;-66
2022/09/28 15:19:17;;;;;;;15.20;10.60;;;;;;;;;;4862380;29;20100;-66
2022/09/28 15:21:46;;;;;;;14.05;10.95;;;;;;;;;;4859377;29;20025;-67
2022/09/28 15:24:32;;;;;;;14.77;9.10;;;;;;;;;;4860643;29;20022;-67
2022/09/28 15:27:02;;;;;;;15.35;8.40;;;;;;;;;;4873153;29;20029;-67
2022/09/28 15:29:32;;;;;;;13.32;9.18;;;;;;;;;;4863587;29;20031;-68
2022/09/28 15:31:58;;;;;;;14.25;9.52;;;;;;;;;;4874274;29;20498;-69
2022/09/28 15:37:14;;;;;;;15.52;8.48;;;;;;;;;;4868502;29;20442;-66
2022/09/28 15:39:40;;;;;;;12.85;8.30;;;;;;;;;;4864046;29;20057;-69
2022/09/28 15:42:06;;;;;;;12.70;7.97;;;;;;;;;;4876710;29;20426;-68
2022/09/28 15:44:36;;;;;;;14.20;8.20;;;;;;;;;;4871113;29;20481;-68
2022/09/28 15:47:12;;;;;;;12.50;8.05;;;;;;;;;;4866257;29;20038;-67
2022/09/28 15:49:44;;;;;;;14.80;8.48;;;;;;;;;;4867556;29;20036;-68
2022/09/28 15:52:12;;;;;;;;;;;;;;;;;;4864612;29;20117;-66
2022/09/28 15:54:41;;;;;;;15.65;8.88;;;;;;;;;;4866564;29;19943;-69
2022/09/28 15:57:27;;;;;;;13.43;8.90;;;;;;;;;;4858592;29;20036;-68
2022/09/28 15:59:55;;;;;;;17.02;10.00;;;;;;;;;;4863120;29;20414;-67
2022/09/28 16:02:21;;;;;;;17.23;9.95;;;;;;;;;;4872154;29;20176;-69
2022/09/28 16:04:55;;;;;;;16.10;10.32;;;;;;;;;;4865259;29;20029;-69
2022/09/28 16:07:47;;;;;;;16.63;10.63;;;;;;;;;;4868502;29;20044;-69
2022/09/28 16:10:13;;;;;;;16.60;10.75;;;;;;;;;;4872244;29;20193;-71
2022/09/28 16:12:39;;;;;;;17.38;10.65;;;;;;;;;;4866917;29;20112;-72
2022/09/28 16:15:06;;;;;;;17.67;10.60;;;;;;;;;;4868855;29;20041;-70
2022/09/28 16:17:34;;;;;;;16.50;11.18;;;;;;;;;;4869103;29;20028;-68
2022/09/28 16:20:35;;;;;;;19.45;10.88;;;;;;;;;;4876565;29;20100;-67
2022/09/28 16:23:08;;;;;;;18.15;11.32;;;;;;;;;;4783645;30;20068;-67
2022/09/28 16:25:38;;;;;;;17.60;11.10;;;;;;;;;;4783690;30;20392;-66
2022/09/28 16:28:04;;;;;;;16.17;10.85;;;;;;;;;;4783422;30;20050;-70
2022/09/28 16:30:31;;;;;;;18.27;11.35;;;;;;;;;;4769408;30;20160;-69
2022/09/28 16:33:00;;;;;;;17.13;11.70;;;;;;;;;;4778725;30;20126;-68
2022/09/28 16:35:26;;;;;;;17.55;11.30;;;;;;;;;;4778016;30;20043;-69
2022/09/28 16:38:02;;;;;;;19.70;12.52;;;;;;;;;;4782425;30;20047;-67
2022/09/28 16:40:30;;;;;;;20.00;12.63;;;;;;;;;;4782084;30;20397;-70
2022/09/28 16:43:02;;;;;;;20.42;13.05;;;;;;;;;;4784449;29;20043;-66
2022/09/28 16:45:28;;;;;;;15.70;12.10;;;;;;;;;;4787049;30;20035;-64
2022/09/28 16:47:55;;;;;;;16.27;11.82;;;;;;;;;;4785914;30;20138;-66
2022/09/28 16:50:21;;;;;;;21.30;12.07;;;;;;;;;;4785441;30;20046;-67
2022/09/28 16:55:40;;;;;;;16.38;12.07;;;;;;;;;;4786809;30;20088;-66
2022/09/28 16:58:07;;;;;;;18.27;12.85;;;;;;;;;;4876772;29;20466;-66
2022/09/28 17:00:33;;;;;;;17.48;12.05;;;;;;;;;;4874532;29;20043;-65
2022/09/28 17:02:59;;;;;;;19.20;12.52;;;;;;;;;;4874162;29;20063;-66
2022/09/28 17:05:25;;;;;;;18.60;12.15;;;;;;;;;;4863385;29;20032;-65
2022/09/28 17:08:01;;;;;;;19.08;12.57;;;;;;;;;;4868837;29;20069;-68
2022/09/28 17:10:35;;;;;;;18.88;12.68;;;;;;;;;;4873390;29;20549;-69
2022/09/28 17:13:01;;;;;;;32.75;16.13;;;;;;;;;;4862642;29;20038;-67
2022/09/28 17:15:27;;;;;;;24.33;15.65;;;;;;;;;;4875639;29;20131;-66
2022/09/28 17:17:54;;;;;;;24.83;16.45;;;;;;;;;;4868896;29;20060;-63
2022/09/28 17:20:22;;;;;;;25.80;15.45;;;;;;;;;;4870671;29;20025;-67
2022/09/28 17:22:48;;;;;;;26.42;15.52;;;;;;;;;;4875516;29;20037;-67
2022/09/28 17:25:15;;;;;;;22.52;14.98;;;;;;;;;;4861154;29;20025;-67
2022/09/28 17:27:43;;;;;;;22.38;14.45;;;;;;;;;;4866568;29;20498;-67
2022/09/28 17:30:10;;;;;;;21.65;14.65;;;;;;;;;;4861003;29;20037;-66
2022/09/28 17:32:38;;;;;;;21.40;14.98;;;;;;;;;;4860205;29;20033;-64
2022/09/28 17:35:04;;;;;;;19.20;14.00;;;;;;;;;;4859908;29;20085;-66
2022/09/28 17:37:33;;;;;;;23.73;14.23;;;;;;;;;;4844137;29;20037;-66
2022/09/28 17:39:59;;;;;;;19.15;13.70;;;;;;;;;;4860535;29;20058;-70
2022/09/28 17:42:25;;;;;;;20.27;14.02;;;;;;;;;;4877892;29;20037;-67
2022/09/28 17:44:51;;;;;;;18.70;13.90;;;;;;;;;;4878619;29;20033;-69
2022/09/28 17:47:17;;;;;;;17.92;13.65;;;;;;;;;;4869428;29;20034;-67
2022/09/28 17:49:44;;;;;;;20.27;14.30;;;;;;;;;;4867814;29;20040;-67
2022/09/28 17:52:10;;;;;;;21.45;13.98;;;;;;;;;;4872966;29;20037;-66
2022/09/28 17:54:36;;;;;;;18.42;13.38;;;;;;;;;;4868152;29;20136;-66
2022/09/28 17:57:02;;;;;;;18.80;14.35;;;;;;;;;;4868748;29;20096;-69
2022/09/28 17:59:28;;;;;;;22.02;14.30;;;;;;;;;;4867814;29;20120;-67
2022/09/28 18:01:54;;;;;;;18.20;13.32;;;;;;;;;;4869584;29;20052;-67
2022/09/28 18:04:20;;;;;;;20.10;13.50;;;;;;;;;;4870728;29;20032;-68
2022/09/28 18:06:46;;;;;;;18.33;13.60;;;;;;;;;;4866775;29;20021;-65
2022/09/28 18:09:14;;;;;;;19.00;14.77;;;;;;;;;;4868669;29;20041;-69
2022/09/28 18:11:42;;;;;;;21.13;14.27;;;;;;;;;;4867644;29;20033;-67
2022/09/28 18:14:09;;;;;;;20.95;15.13;;;;;;;;;;4867346;29;20092;-65
2022/09/28 18:16:35;;;;;;;21.05;14.52;;;;;;;;;;4869250;29;20036;-66
2022/09/28 18:19:01;;;;;;;21.70;15.85;;;;;;;;;;4867828;29;20031;-66
2022/09/28 18:21:27;;;;;;;24.92;15.82;;;;;;;;;;4867687;29;20029;-67
2022/09/28 18:23:53;;;;;;;21.10;15.77;;;;;;;;;;4869095;29;20514;-67
2022/09/28 18:26:19;;;;;;;21.58;15.52;;;;;;;;;;4867629;29;20038;-66
2022/09/28 18:28:45;;;;;;;28.00;16.08;;;;;;;;;;4867808;29;20389;-67
2022/09/28 18:31:13;;;;;;;22.58;15.73;;;;;;;;;;4868807;29;20033;-66
2022/09/28 18:33:39;;;;;;;20.40;15.32;;;;;;;;;;4867256;29;20037;-67
2022/09/28 18:36:06;;;;;;;20.77;15.15;;;;;;;;;;4868037;29;20105;-66
2022/09/28 18:38:34;;;;;;;21.95;15.60;;;;;;;;;;4868952;29;20203;-67
2022/09/28 18:41:13;;;;;;;24.45;15.65;;;;;;;;;;4872275;29;20045;-66
2022/09/28 18:43:39;;;;;;;20.95;14.45;;;;;;;;;;4878268;29;20472;-67
2022/09/28 18:46:09;;;;;;;20.52;14.52;;;;;;;;;;4876357;29;20025;-66
2022/09/28 18:48:35;;;;;;;18.92;14.32;;;;;;;;;;4868347;29;20035;-67
2022/09/28 18:51:01;;;;;;;21.33;14.60;;;;;;;;;;4867553;29;20029;-68
2022/09/28 18:53:27;;;;;;;21.70;14.32;;;;;;;;;;4867116;29;20029;-68
2022/09/28 18:55:55;;;;;;;21.40;14.40;;;;;;;;;;4868603;29;20033;-67
2022/09/28 18:58:21;;;;;;;20.95;14.60;;;;;;;;;;4867127;29;20086;-67
2022/09/28 19:00:47;;;;;;;18.20;13.93;;;;;;;;;;4868964;29;20036;-68
2022/09/28 19:03:14;;;;;;;20.98;14.25;;;;;;;;;;4866935;29;20028;-68
2022/09/28 19:05:44;;;;;;;22.67;16.08;;;;;;;;;;4866095;29;20025;-68
2022/09/28 19:08:10;;;;;;;20.95;14.57;;;;;;;;;;4866582;29;20101;-67
2022/09/28 19:10:36;;;;;;;25.20;16.67;;;;;;;;;;4868063;29;20033;-66
2022/09/28 19:13:02;;;;;;;34.53;20.83;;;;;;;;;;4866977;29;20029;-68
2022/09/28 19:15:28;;;;;;;35.95;19.98;;;;;;;;;;4866710;29;20045;-66
2022/09/28 19:17:54;;;;;;;34.28;21.13;;;;;;;;;;4868383;29;20031;-68
2022/09/28 19:20:20;;;;;;;29.35;18.35;;;;;;;;;;4867046;29;20025;-65
2022/09/28 19:22:49;;;;;;;23.98;16.63;;;;;;;;;;4867112;29;20025;-65
2022/09/28 19:25:15;;;;;;;23.98;15.90;;;;;;;;;;4868373;29;20040;-68
2022/09/28 19:27:41;;;;;;;24.73;15.13;;;;;;;;;;4866858;29;20161;-66
2022/09/28 19:30:07;;;;;;;18.58;14.25;;;;;;;;;;4866950;29;20817;-69
2022/09/28 19:32:33;;;;;;;21.00;14.68;;;;;;;;;;4868051;29;20542;-67
2022/09/28 19:35:00;;;;;;;18.60;13.43;;;;;;;;;;4849458;29;20410;-68
2022/09/28 19:37:26;;;;;;;21.27;14.70;;;;;;;;;;4866699;29;20084;-67
2022/09/28 19:39:52;;;;;;;21.45;14.05;;;;;;;;;;4867797;29;20497;-67
2022/09/28 19:42:18;;;;;;;21.98;14.23;;;;;;;;;;4866219;29;20033;-64
2022/09/28 19:44:45;;;;;;;20.77;14.32;;;;;;;;;;4867071;29;20033;-67